createdAt,value
2023-05-10T00:02:04.557Z,1
2023-05-10T00:14:04.466Z,1
2023-05-10T00:26:04.592Z,1
2023-05-10T00:38:04.574Z,1
2023-05-10T00:50:04.514Z,1
2023-05-10T01:02:04.764Z,1
2023-05-10T01:14:04.637Z,1
2023-05-10T01:26:04.632Z,1
2023-05-10T01:38:04.569Z,1
2023-05-10T01:50:04.741Z,1
2023-05-10T02:02:04.718Z,1
2023-05-10T02:14:04.649Z,1
2023-05-10T02:26:04.589Z,1
2023-05-10T02:38:04.764Z,1
2023-05-10T02:50:04.711Z,1
2023-05-10T03:02:04.721Z,1
2023-05-10T03:14:04.832Z,1
2023-05-10T03:26:04.825Z,1
2023-05-10T03:38:04.754Z,2
2023-05-10T03:50:04.727Z,9
2023-05-10T04:02:04.939Z,28
2023-05-10T04:14:04.851Z,52
2023-05-10T04:26:04.780Z,69
2023-05-10T04:38:04.771Z,80
2023-05-10T04:50:04.900Z,86
2023-05-10T05:02:04.932Z,87
2023-05-10T05:14:04.798Z,91
2023-05-10T05:26:04.797Z,86
2023-05-10T05:38:04.913Z,88
2023-05-10T05:50:04.908Z,89
2023-05-10T06:02:46.637Z,92
2023-05-10T06:14:05.026Z,93
2023-05-10T06:26:04.956Z,90
2023-05-10T06:38:04.958Z,93
2023-05-10T06:50:04.874Z,94
2023-05-10T07:02:05.111Z,94
2023-05-10T07:14:04.991Z,94
2023-05-10T07:26:04.966Z,92
2023-05-10T07:38:04.921Z,93
2023-05-10T07:50:05.083Z,96
2023-05-10T08:02:17.344Z,96
2023-05-10T08:14:05.818Z,96
2023-05-10T08:26:05.148Z,96
2023-05-10T08:38:05.177Z,96
2023-05-10T08:50:05.053Z,97
2023-05-10T09:02:05.056Z,97
2023-05-10T09:14:05.451Z,97
2023-05-10T09:26:05.273Z,98
2023-05-10T09:38:05.117Z,97
2023-05-10T09:50:05.091Z,98
2023-05-10T10:02:05.882Z,98
2023-05-10T10:14:05.755Z,98
2023-05-10T10:26:05.346Z,97
2023-05-10T10:38:05.307Z,97
2023-05-10T10:50:05.235Z,97
2023-05-10T11:02:05.207Z,98
2023-05-10T11:14:05.194Z,98
2023-05-10T11:26:05.334Z,98
2023-05-10T11:38:05.252Z,97
2023-05-10T11:50:05.379Z,97
2023-05-10T12:02:05.180Z,97
2023-05-10T12:14:05.394Z,97
2023-05-10T12:26:05.300Z,97
2023-05-10T12:38:05.305Z,96
2023-05-10T12:50:05.219Z,96
2023-05-10T13:02:05.404Z,96
2023-05-10T13:14:05.366Z,96
2023-05-10T13:26:05.344Z,95
2023-05-10T13:38:05.250Z,95
2023-05-10T13:50:05.445Z,95
2023-05-10T14:02:05.449Z,96
2023-05-10T14:14:05.394Z,96
2023-05-10T14:26:05.510Z,96
2023-05-10T14:38:05.481Z,96
2023-05-10T14:50:05.433Z,96
2023-05-10T15:02:05.397Z,96
2023-05-10T15:14:05.561Z,96
2023-05-10T15:26:05.511Z,96
2023-05-10T15:38:05.436Z,96
2023-05-10T15:50:05.484Z,96
2023-05-10T16:02:05.839Z,96
2023-05-10T16:14:07.106Z,96
2023-05-10T16:26:05.519Z,96
2023-05-10T16:38:05.754Z,95
2023-05-10T16:50:05.632Z,95
2023-05-10T17:02:05.922Z,95
2023-05-10T17:14:05.596Z,95
2023-05-10T17:26:05.771Z,95
2023-05-10T17:38:05.689Z,95
2023-05-10T17:50:06.056Z,95
2023-05-10T18:02:05.586Z,94
2023-05-10T18:14:05.585Z,92
2023-05-10T18:26:05.682Z,89
2023-05-10T18:38:05.688Z,88
2023-05-10T18:50:05.620Z,87
2023-05-10T19:02:05.844Z,85
2023-05-10T19:14:05.764Z,82
2023-05-10T19:26:05.707Z,78
2023-05-10T19:38:05.679Z,74
2023-05-10T19:50:05.864Z,62
2023-05-10T20:02:05.758Z,28
2023-05-10T20:14:05.734Z,12
2023-05-10T20:26:05.885Z,5
2023-05-10T20:38:05.852Z,2
2023-05-10T20:50:05.814Z,1
2023-05-10T21:02:05.764Z,1
2023-05-10T21:14:05.897Z,1
2023-05-10T21:38:05.918Z,0
2023-05-10T21:50:06.441Z,0
2023-05-10T22:02:05.856Z,0
2023-05-10T22:14:05.804Z,0
2023-05-10T22:26:05.955Z,0
2023-05-10T22:38:05.921Z,0
2023-05-10T22:50:05.886Z,0
2023-05-10T23:02:05.853Z,0
2023-05-10T23:14:05.975Z,0
2023-05-10T23:26:05.953Z,0
2023-05-10T23:38:05.884Z,1
2023-05-10T23:50:06.107Z,1
